Portada
METAR-TAF:

METAR-TAF

Aeroports :

Saint-Denis, Reunió

latitud: 20-53S, longitud: 055-31E, altitud: 21 m

Observació

L'informe es va fer fa 17 minuts, a les 02:30 UTC
Vent 13 kt del Sud-Est
Temperatura 20°C
Humitat 60%
Pressió 1024 hPa
Visibilitat 10 km o més
sense núvols per sota de 1500 mi sense presència de cumulonimbus.

METAR: FMEE 200230Z AUTO 14013KT CAVOK 20/12 Q1024 BECMG 14020G30KT

Hora: 06:47 (02:47 UTC)

Pronòstic

L'informe es va fer fa 1 hora i 7 minuts, a les 01:40 UTC
Pronòstic vàlid del 20 a les 01 UTC al 21 a les 06 UTC
Vent 20 kt del Sud-Est amb ràfegues de 30 kt
Visibilitat 10 km o més
Escasses núvols a una alçada de 4000 ft
Núvols disperses a una alçada de 6000 ft
Probabilitat 30% :
Temporalment
l' 20 a les 18 UTC al 21 a les 06 UTC
Cel ennuvolat a una alçada de 2500 ft, Cumulus congestus.
xàfecs de pluja

TAF: FMEE 200140Z 2001/2106 14020G30KT 9999 FEW040 SCT060 PROB30 TEMPO 2018/2106 SHRA BKN025TCU

Observacions i pronòstics meteorològics de més de 4000 aeroports (METAR i TAF).

Les estacions disponibles són els punts grocs i vermells al mapa.

Posi el ratolí al punt desitjat per veure el nom de l'estació.

Feu clic per veure les observacions i els pronòstics meteorològics.

Per canviar el mapa: feu clic els botons verds amb una creu de color negre per apropar; al botó verd amb un guió per allunyar la imatge; o en les fletxes verdes per a mapes adjacents.


METAR-TAF: